Terminal Aerodrome Forecast
Issued by NWS Wilmington, OH

Current Version | Previous Version | Graphics & Text | Print | Product List | Glossary On
Versions: 1 2 3 4 5 6 7 8 9 10 11 12 13 14 15 16 17 18 19 20 21 22 23 24 25 26
000
FTUS41 KILN 142030 AAA
TAFCVG
TAF AMD
KCVG 142030Z 1421/1524 VRB06KT P6SM SCT250
     FM151100 VRB06KT P6SM SCT100 BKN250
     FM151400 18009G17KT P6SM FEW050 OVC100
     FM151700 21010G17KT 6SM -SHRA BR SCT025 OVC050
     FM152000 22008KT 4SM -SHRA BR SCT008 OVC016=

USA.gov is the U.S. government's official web portal to all federal, state and local government web resources and services.